Terminal Aerodrome Forecast
Issued by NWS

Home | Current Version | Previous Version | Text Only | Print | Product List | Glossary Off
Versions: 1 2 3 4 5 6 7 8 9 10 11 12

916
FTUS43 KICT 042339
TAFSLN
TAF
KSLN 042339Z 0500/0524 31007KT P6SM FEW250
     FM050300 VRB03KT P6SM BKN250
     FM051400 16007KT P6SM SCT100 OVC150
     FM051700 25012KT P6SM OVC100=

USA.gov is the U.S. government's official web portal to all federal, state and local government web resources and services.